sensor_id;sensor_type;location;lat;lon;timestamp;pressure;altitude;pressure_sealevel;temperature;humidity
20620;BME280;10469;42.720;23.252;2023-06-22T00:01:15;95298.41;;;18.78;100.00
20620;BME280;10469;42.720;23.252;2023-06-22T00:03:41;95307.41;;;18.59;100.00
20620;BME280;10469;42.720;23.252;2023-06-22T00:06:06;95301.72;;;18.70;100.00
20620;BME280;10469;42.720;23.252;2023-06-22T00:08:32;95293.81;;;18.64;100.00
20620;BME280;10469;42.720;23.252;2023-06-22T00:10:57;95283.19;;;18.67;100.00
20620;BME280;10469;42.720;23.252;2023-06-22T00:13:23;95289.69;;;18.82;100.00
20620;BME280;10469;42.720;23.252;2023-06-22T00:15:48;95282.94;;;18.64;100.00
20620;BME280;10469;42.720;23.252;2023-06-22T00:18:14;95284.09;;;18.52;100.00
20620;BME280;10469;42.720;23.252;2023-06-22T00:20:41;95281.69;;;18.36;100.00
20620;BME280;10469;42.720;23.252;2023-06-22T00:39:50;95280.06;;;18.29;100.00
20620;BME280;10469;42.720;23.252;2023-06-22T00:42:15;95282.75;;;18.40;100.00
20620;BME280;10469;42.720;23.252;2023-06-22T00:44:40;95272.06;;;18.69;100.00
20620;BME280;10469;42.720;23.252;2023-06-22T00:47:06;95271.28;;;18.58;100.00
20620;BME280;10469;42.720;23.252;2023-06-22T00:49:32;95270.75;;;18.56;100.00
20620;BME280;10469;42.720;23.252;2023-06-22T00:51:58;95278.31;;;18.64;100.00
20620;BME280;10469;42.720;23.252;2023-06-22T00:54:24;95280.47;;;18.77;100.00
20620;BME280;10469;42.720;23.252;2023-06-22T00:56:53;95273.97;;;18.63;100.00
20620;BME280;10469;42.720;23.252;2023-06-22T00:59:21;95284.00;;;18.78;100.00
20620;BME280;10469;42.720;23.252;2023-06-22T01:01:46;95285.66;;;18.79;100.00
20620;BME280;10469;42.720;23.252;2023-06-22T01:04:12;95298.41;;;18.73;100.00
20620;BME280;10469;42.720;23.252;2023-06-22T01:07:06;95287.03;;;18.66;100.00
20620;BME280;10469;42.720;23.252;2023-06-22T01:09:46;95287.31;;;18.70;100.00
20620;BME280;10469;42.720;23.252;2023-06-22T01:12:15;95262.09;;;18.49;100.00
20620;BME280;10469;42.720;23.252;2023-06-22T01:14:53;95286.22;;;18.71;100.00
20620;BME280;10469;42.720;23.252;2023-06-22T01:26:06;95282.44;;;18.51;100.00
20620;BME280;10469;42.720;23.252;2023-06-22T01:28:46;95293.63;;;18.29;100.00
20620;BME280;10469;42.720;23.252;2023-06-22T01:31:18;95300.94;;;18.39;100.00
20620;BME280;10469;42.720;23.252;2023-06-22T01:33:50;95310.47;;;18.26;100.00
20620;BME280;10469;42.720;23.252;2023-06-22T01:36:17;95313.69;;;18.39;100.00
20620;BME280;10469;42.720;23.252;2023-06-22T01:44:29;95317.81;;;18.16;100.00
20620;BME280;10469;42.720;23.252;2023-06-22T01:46:55;95282.28;;;17.97;100.00
20620;BME280;10469;42.720;23.252;2023-06-22T01:49:21;95299.13;;;17.89;100.00
20620;BME280;10469;42.720;23.252;2023-06-22T01:51:47;95310.50;;;17.80;100.00
20620;BME280;10469;42.720;23.252;2023-06-22T01:54:12;95309.41;;;17.82;100.00
20620;BME280;10469;42.720;23.252;2023-06-22T01:56:38;95318.34;;;17.87;100.00
20620;BME280;10469;42.720;23.252;2023-06-22T02:02:06;95334.38;;;17.89;100.00
20620;BME280;10469;42.720;23.252;2023-06-22T02:04:54;95328.41;;;17.82;100.00
20620;BME280;10469;42.720;23.252;2023-06-22T02:07:23;95336.78;;;17.70;100.00
20620;BME280;10469;42.720;23.252;2023-06-22T02:09:50;95347.38;;;17.66;100.00
20620;BME280;10469;42.720;23.252;2023-06-22T02:12:22;95331.63;;;17.53;100.00
20620;BME280;10469;42.720;23.252;2023-06-22T02:14:49;95327.81;;;17.54;100.00
20620;BME280;10469;42.720;23.252;2023-06-22T02:17:17;95312.59;;;17.33;100.00
20620;BME280;10469;42.720;23.252;2023-06-22T02:19:43;95329.41;;;17.40;100.00
20620;BME280;10469;42.720;23.252;2023-06-22T02:22:09;95328.28;;;17.25;100.00
20620;BME280;10469;42.720;23.252;2023-06-22T02:24:35;95321.25;;;17.14;100.00
20620;BME280;10469;42.720;23.252;2023-06-22T02:27:01;95333.44;;;17.22;100.00
20620;BME280;10469;42.720;23.252;2023-06-22T02:29:27;95317.63;;;16.88;100.00
20620;BME280;10469;42.720;23.252;2023-06-22T02:31:54;95311.63;;;16.81;100.00
20620;BME280;10469;42.720;23.252;2023-06-22T02:34:19;95318.69;;;16.92;100.00
20620;BME280;10469;42.720;23.252;2023-06-22T02:36:46;95318.47;;;16.99;100.00
20620;BME280;10469;42.720;23.252;2023-06-22T02:39:24;95327.41;;;17.04;100.00
20620;BME280;10469;42.720;23.252;2023-06-22T02:41:54;95311.97;;;17.05;100.00
20620;BME280;10469;42.720;23.252;2023-06-22T02:44:20;95319.06;;;17.11;100.00
20620;BME280;10469;42.720;23.252;2023-06-22T02:46:46;95300.03;;;17.01;100.00
20620;BME280;10469;42.720;23.252;2023-06-22T02:49:12;95320.72;;;17.27;100.00
20620;BME280;10469;42.720;23.252;2023-06-22T02:51:44;95320.22;;;17.41;100.00
20620;BME280;10469;42.720;23.252;2023-06-22T02:54:10;95314.75;;;17.25;100.00
20620;BME280;10469;42.720;23.252;2023-06-22T02:56:35;95322.34;;;17.23;100.00
20620;BME280;10469;42.720;23.252;2023-06-22T02:59:02;95321.25;;;17.24;100.00
20620;BME280;10469;42.720;23.252;2023-06-22T03:01:28;95331.00;;;17.20;100.00
20620;BME280;10469;42.720;23.252;2023-06-22T03:03:55;95323.44;;;17.27;100.00
20620;BME280;10469;42.720;23.252;2023-06-22T03:06:21;95312.56;;;17.22;100.00
20620;BME280;10469;42.720;23.252;2023-06-22T03:09:00;95329.97;;;17.47;100.00
20620;BME280;10469;42.720;23.252;2023-06-22T03:11:26;95332.38;;;17.28;100.00
20620;BME280;10469;42.720;23.252;2023-06-22T03:13:51;95334.56;;;17.46;100.00
20620;BME280;10469;42.720;23.252;2023-06-22T03:16:18;95326.16;;;17.43;100.00
20620;BME280;10469;42.720;23.252;2023-06-22T03:18:44;95346.22;;;17.42;100.00
20620;BME280;10469;42.720;23.252;2023-06-22T03:21:10;95357.09;;;17.57;100.00
20620;BME280;10469;42.720;23.252;2023-06-22T03:23:35;95355.22;;;17.63;100.00
20620;BME280;10469;42.720;23.252;2023-06-22T03:26:02;95354.66;;;17.45;100.00
20620;BME280;10469;42.720;23.252;2023-06-22T03:28:27;95354.66;;;17.50;100.00
20620;BME280;10469;42.720;23.252;2023-06-22T03:30:53;95352.19;;;17.44;100.00
20620;BME280;10469;42.720;23.252;2023-06-22T03:33:19;95350.03;;;17.41;100.00
20620;BME280;10469;42.720;23.252;2023-06-22T03:35:44;95359.00;;;17.56;100.00
20620;BME280;10469;42.720;23.252;2023-06-22T03:38:10;95362.53;;;17.67;100.00
20620;BME280;10469;42.720;23.252;2023-06-22T03:40:35;95366.94;;;17.84;100.00
20620;BME280;10469;42.720;23.252;2023-06-22T03:43:01;95373.19;;;18.20;100.00
20620;BME280;10469;42.720;23.252;2023-06-22T03:45:26;95364.75;;;17.96;100.00
20620;BME280;10469;42.720;23.252;2023-06-22T03:47:52;95359.34;;;17.86;100.00
20620;BME280;10469;42.720;23.252;2023-06-22T03:50:18;95374.00;;;17.90;100.00
20620;BME280;10469;42.720;23.252;2023-06-22T03:52:46;95377.22;;;17.87;100.00
20620;BME280;10469;42.720;23.252;2023-06-22T03:55:11;95369.63;;;18.29;100.00
20620;BME280;10469;42.720;23.252;2023-06-22T03:57:37;95361.22;;;18.41;100.00
20620;BME280;10469;42.720;23.252;2023-06-22T04:00:03;95361.78;;;18.18;100.00
20620;BME280;10469;42.720;23.252;2023-06-22T04:02:31;95362.59;;;18.08;100.00
20620;BME280;10469;42.720;23.252;2023-06-22T04:04:56;95348.50;;;17.80;100.00
20620;BME280;10469;42.720;23.252;2023-06-22T04:07:22;95353.28;;;17.48;100.00
20620;BME280;10469;42.720;23.252;2023-06-22T04:09:48;95351.47;;;17.89;100.00
20620;BME280;10469;42.720;23.252;2023-06-22T04:12:13;95352.31;;;18.05;100.00
20620;BME280;10469;42.720;23.252;2023-06-22T04:14:39;95339.25;;;18.27;100.00
20620;BME280;10469;42.720;23.252;2023-06-22T04:17:04;95333.75;;;18.58;100.00
20620;BME280;10469;42.720;23.252;2023-06-22T04:19:30;95347.31;;;18.84;100.00
20620;BME280;10469;42.720;23.252;2023-06-22T04:21:56;95342.94;;;18.77;100.00
20620;BME280;10469;42.720;23.252;2023-06-22T04:24:21;95343.97;;;19.02;100.00
20620;BME280;10469;42.720;23.252;2023-06-22T04:26:47;95324.34;;;19.10;100.00
20620;BME280;10469;42.720;23.252;2023-06-22T04:29:13;95342.13;;;19.42;100.00
20620;BME280;10469;42.720;23.252;2023-06-22T04:31:38;95348.16;;;19.39;100.00
20620;BME280;10469;42.720;23.252;2023-06-22T04:34:05;95334.78;;;19.42;100.00
20620;BME280;10469;42.720;23.252;2023-06-22T04:39:07;95344.44;;;19.74;100.00
20620;BME280;10469;42.720;23.252;2023-06-22T04:41:38;95349.91;;;19.59;100.00
20620;BME280;10469;42.720;23.252;2023-06-22T04:44:13;95352.28;;;19.75;100.00
20620;BME280;10469;42.720;23.252;2023-06-22T04:46:58;95359.88;;;19.84;100.00
20620;BME280;10469;42.720;23.252;2023-06-22T04:49:29;95361.59;;;20.09;100.00
20620;BME280;10469;42.720;23.252;2023-06-22T04:51:59;95340.19;;;20.26;100.00
20620;BME280;10469;42.720;23.252;2023-06-22T04:54:25;95342.47;;;20.48;100.00
20620;BME280;10469;42.720;23.252;2023-06-22T04:57:00;95357.25;;;20.37;100.00
20620;BME280;10469;42.720;23.252;2023-06-22T04:59:27;95350.94;;;20.12;100.00
20620;BME280;10469;42.720;23.252;2023-06-22T05:04:25;95324.63;;;20.61;100.00
20620;BME280;10469;42.720;23.252;2023-06-22T05:06:51;95339.13;;;20.80;100.00
20620;BME280;10469;42.720;23.252;2023-06-22T05:09:17;95348.94;;;21.05;100.00
20620;BME280;10469;42.720;23.252;2023-06-22T05:11:46;95342.94;;;21.27;100.00
20620;BME280;10469;42.720;23.252;2023-06-22T05:14:12;95344.38;;;21.43;100.00
20620;BME280;10469;42.720;23.252;2023-06-22T05:16:40;95346.88;;;21.40;100.00
20620;BME280;10469;42.720;23.252;2023-06-22T05:19:06;95354.13;;;21.68;100.00
20620;BME280;10469;42.720;23.252;2023-06-22T05:21:32;95351.09;;;21.70;100.00
20620;BME280;10469;42.720;23.252;2023-06-22T05:23:57;95349.84;;;21.62;100.00
20620;BME280;10469;42.720;23.252;2023-06-22T05:26:33;95352.44;;;21.72;100.00
20620;BME280;10469;42.720;23.252;2023-06-22T05:29:00;95356.63;;;21.84;100.00
20620;BME280;10469;42.720;23.252;2023-06-22T05:31:29;95360.41;;;22.07;100.00
20620;BME280;10469;42.720;23.252;2023-06-22T05:33:55;95353.38;;;22.19;100.00
20620;BME280;10469;42.720;23.252;2023-06-22T05:36:21;95346.06;;;22.15;100.00
20620;BME280;10469;42.720;23.252;2023-06-22T05:38:53;95362.44;;;22.34;100.00
20620;BME280;10469;42.720;23.252;2023-06-22T05:41:19;95364.75;;;22.40;100.00
20620;BME280;10469;42.720;23.252;2023-06-22T05:43:45;95369.94;;;22.42;100.00
20620;BME280;10469;42.720;23.252;2023-06-22T05:46:10;95367.78;;;22.25;100.00
20620;BME280;10469;42.720;23.252;2023-06-22T05:48:36;95375.00;;;22.81;100.00
20620;BME280;10469;42.720;23.252;2023-06-22T05:51:02;95372.41;;;22.90;100.00
20620;BME280;10469;42.720;23.252;2023-06-22T05:53:28;95371.56;;;22.75;100.00
20620;BME280;10469;42.720;23.252;2023-06-22T05:55:53;95370.25;;;23.14;100.00
20620;BME280;10469;42.720;23.252;2023-06-22T05:58:19;95375.94;;;23.18;100.00
20620;BME280;10469;42.720;23.252;2023-06-22T06:00:44;95373.63;;;23.11;100.00
20620;BME280;10469;42.720;23.252;2023-06-22T06:03:11;95373.50;;;23.58;100.00
20620;BME280;10469;42.720;23.252;2023-06-22T06:05:37;95375.59;;;23.74;100.00
20620;BME280;10469;42.720;23.252;2023-06-22T06:08:05;95363.56;;;23.98;100.00
20620;BME280;10469;42.720;23.252;2023-06-22T06:10:31;95357.25;;;24.11;100.00
20620;BME280;10469;42.720;23.252;2023-06-22T06:12:57;95365.59;;;24.28;100.00
20620;BME280;10469;42.720;23.252;2023-06-22T06:15:22;95357.84;;;24.08;100.00
20620;BME280;10469;42.720;23.252;2023-06-22T06:17:52;95355.97;;;24.17;100.00
20620;BME280;10469;42.720;23.252;2023-06-22T06:20:19;95361.91;;;24.33;100.00
20620;BME280;10469;42.720;23.252;2023-06-22T06:22:47;95358.63;;;24.22;100.00
20620;BME280;10469;42.720;23.252;2023-06-22T06:25:13;95345.09;;;24.71;100.00
20620;BME280;10469;42.720;23.252;2023-06-22T06:27:42;95352.69;;;25.71;100.00
20620;BME280;10469;42.720;23.252;2023-06-22T06:30:09;95346.75;;;25.77;100.00
20620;BME280;10469;42.720;23.252;2023-06-22T06:32:35;95344.47;;;26.66;100.00
20620;BME280;10469;42.720;23.252;2023-06-22T06:35:00;95341.81;;;27.34;100.00
20620;BME280;10469;42.720;23.252;2023-06-22T06:37:26;95352.59;;;28.73;100.00
20620;BME280;10469;42.720;23.252;2023-06-22T06:39:51;95346.59;;;27.16;100.00
20620;BME280;10469;42.720;23.252;2023-06-22T06:42:17;95340.31;;;27.66;100.00
20620;BME280;10469;42.720;23.252;2023-06-22T06:44:44;95334.66;;;28.67;100.00
20620;BME280;10469;42.720;23.252;2023-06-22T06:47:10;95334.19;;;29.84;100.00
20620;BME280;10469;42.720;23.252;2023-06-22T06:49:35;95322.34;;;29.71;100.00
20620;BME280;10469;42.720;23.252;2023-06-22T06:52:01;95318.72;;;29.83;100.00
20620;BME280;10469;42.720;23.252;2023-06-22T06:54:27;95322.78;;;29.49;100.00
20620;BME280;10469;42.720;23.252;2023-06-22T06:56:53;95331.38;;;28.32;100.00
20620;BME280;10469;42.720;23.252;2023-06-22T06:59:19;95328.41;;;29.53;100.00
20620;BME280;10469;42.720;23.252;2023-06-22T07:01:44;95314.72;;;29.81;100.00
20620;BME280;10469;42.720;23.252;2023-06-22T07:04:10;95324.00;;;30.41;100.00
20620;BME280;10469;42.720;23.252;2023-06-22T07:06:35;95327.66;;;32.58;92.62
20620;BME280;10469;42.720;23.252;2023-06-22T07:09:01;95315.03;;;31.86;95.04
20620;BME280;10469;42.720;23.252;2023-06-22T07:11:29;95310.66;;;32.40;92.26
20620;BME280;10469;42.720;23.252;2023-06-22T07:13:54;95317.97;;;31.27;97.86
20620;BME280;10469;42.720;23.252;2023-06-22T07:16:19;95317.25;;;31.45;98.40
20620;BME280;10469;42.720;23.252;2023-06-22T07:18:45;95327.09;;;31.27;97.61
20620;BME280;10469;42.720;23.252;2023-06-22T07:21:10;95314.91;;;31.00;99.39
20620;BME280;10469;42.720;23.252;2023-06-22T07:23:36;95324.47;;;30.87;99.24
20620;BME280;10469;42.720;23.252;2023-06-22T07:26:01;95319.03;;;31.22;100.00
20620;BME280;10469;42.720;23.252;2023-06-22T07:28:28;95332.69;;;30.99;97.35
20620;BME280;10469;42.720;23.252;2023-06-22T07:30:57;95333.94;;;30.86;96.06
20620;BME280;10469;42.720;23.252;2023-06-22T07:33:22;95331.78;;;30.51;98.14
20620;BME280;10469;42.720;23.252;2023-06-22T07:35:47;95333.53;;;31.31;93.71
20620;BME280;10469;42.720;23.252;2023-06-22T07:38:13;95331.94;;;30.42;100.00
20620;BME280;10469;42.720;23.252;2023-06-22T07:40:40;95332.44;;;30.60;100.00
20620;BME280;10469;42.720;23.252;2023-06-22T07:43:07;95331.03;;;30.66;100.00
20620;BME280;10469;42.720;23.252;2023-06-22T07:45:32;95337.69;;;30.65;100.00
20620;BME280;10469;42.720;23.252;2023-06-22T07:48:00;95325.31;;;29.79;100.00
20620;BME280;10469;42.720;23.252;2023-06-22T07:50:25;95332.91;;;29.08;100.00
20620;BME280;10469;42.720;23.252;2023-06-22T07:52:51;95333.13;;;29.40;100.00
20620;BME280;10469;42.720;23.252;2023-06-22T07:55:18;95324.09;;;28.82;100.00
20620;BME280;10469;42.720;23.252;2023-06-22T07:57:43;95322.94;;;28.16;100.00
20620;BME280;10469;42.720;23.252;2023-06-22T08:00:09;95328.88;;;27.85;100.00
20620;BME280;10469;42.720;23.252;2023-06-22T08:02:45;95319.63;;;28.02;100.00
20620;BME280;10469;42.720;23.252;2023-06-22T08:05:11;95312.56;;;29.49;100.00
20620;BME280;10469;42.720;23.252;2023-06-22T08:07:37;95307.31;;;31.13;100.00
20620;BME280;10469;42.720;23.252;2023-06-22T08:10:09;95303.28;;;31.26;100.00
20620;BME280;10469;42.720;23.252;2023-06-22T08:12:35;95301.72;;;31.41;100.00
20620;BME280;10469;42.720;23.252;2023-06-22T08:15:00;95293.16;;;34.00;97.48
20620;BME280;10469;42.720;23.252;2023-06-22T08:17:26;95282.44;;;33.00;99.79
20620;BME280;10469;42.720;23.252;2023-06-22T08:19:51;95307.63;;;31.75;100.00
20620;BME280;10469;42.720;23.252;2023-06-22T08:22:17;95306.09;;;32.51;100.00
20620;BME280;10469;42.720;23.252;2023-06-22T08:24:44;95301.13;;;32.02;100.00
20620;BME280;10469;42.720;23.252;2023-06-22T08:27:10;95303.69;;;31.76;100.00
20620;BME280;10469;42.720;23.252;2023-06-22T08:29:40;95301.03;;;32.76;100.00
20620;BME280;10469;42.720;23.252;2023-06-22T08:32:08;95299.31;;;33.37;99.25
20620;BME280;10469;42.720;23.252;2023-06-22T08:34:34;95295.13;;;33.24;98.87
20620;BME280;10469;42.720;23.252;2023-06-22T08:37:00;95298.78;;;31.69;100.00
20620;BME280;10469;42.720;23.252;2023-06-22T08:39:26;95283.53;;;33.94;93.52
20620;BME280;10469;42.720;23.252;2023-06-22T08:41:53;95289.13;;;30.68;100.00
20620;BME280;10469;42.720;23.252;2023-06-22T08:44:18;95304.91;;;31.94;100.00
20620;BME280;10469;42.720;23.252;2023-06-22T08:46:45;95299.59;;;32.86;99.86
20620;BME280;10469;42.720;23.252;2023-06-22T08:49:10;95292.31;;;32.35;100.00
20620;BME280;10469;42.720;23.252;2023-06-22T08:51:36;95282.78;;;32.75;100.00
20620;BME280;10469;42.720;23.252;2023-06-22T08:54:01;95276.19;;;32.41;96.61
20620;BME280;10469;42.720;23.252;2023-06-22T08:56:27;95281.78;;;32.06;100.00
20620;BME280;10469;42.720;23.252;2023-06-22T08:58:52;95280.97;;;33.32;90.79
20620;BME280;10469;42.720;23.252;2023-06-22T09:01:18;95252.31;;;32.17;94.71
20620;BME280;10469;42.720;23.252;2023-06-22T09:03:44;95271.25;;;31.60;99.75
20620;BME280;10469;42.720;23.252;2023-06-22T09:06:13;95276.81;;;32.54;97.14
20620;BME280;10469;42.720;23.252;2023-06-22T09:08:39;95278.50;;;32.00;93.70
20620;BME280;10469;42.720;23.252;2023-06-22T09:11:05;95269.59;;;33.14;87.56
20620;BME280;10469;42.720;23.252;2023-06-22T09:13:32;95268.44;;;32.31;88.73
20620;BME280;10469;42.720;23.252;2023-06-22T09:15:58;95279.59;;;32.96;89.37
20620;BME280;10469;42.720;23.252;2023-06-22T09:18:23;95268.31;;;32.66;83.80
20620;BME280;10469;42.720;23.252;2023-06-22T09:20:49;95274.88;;;33.73;80.35
20620;BME280;10469;42.720;23.252;2023-06-22T09:23:14;95272.00;;;33.95;81.34
20620;BME280;10469;42.720;23.252;2023-06-22T09:25:40;95273.56;;;36.99;61.48
20620;BME280;10469;42.720;23.252;2023-06-22T09:28:06;95272.22;;;35.69;66.07
20620;BME280;10469;42.720;23.252;2023-06-22T09:30:32;95277.28;;;33.25;83.87
20620;BME280;10469;42.720;23.252;2023-06-22T09:32:57;95284.19;;;33.57;84.61
20620;BME280;10469;42.720;23.252;2023-06-22T09:35:22;95276.06;;;34.02;77.30
20620;BME280;10469;42.720;23.252;2023-06-22T09:37:48;95285.03;;;33.12;81.35
20620;BME280;10469;42.720;23.252;2023-06-22T09:40:13;95285.69;;;32.40;87.88
20620;BME280;10469;42.720;23.252;2023-06-22T09:42:42;95283.59;;;32.37;87.29
20620;BME280;10469;42.720;23.252;2023-06-22T09:45:08;95267.38;;;32.58;80.07
20620;BME280;10469;42.720;23.252;2023-06-22T09:47:33;95264.28;;;34.45;74.44
20620;BME280;10469;42.720;23.252;2023-06-22T09:49:59;95261.25;;;35.98;61.53
20620;BME280;10469;42.720;23.252;2023-06-22T09:52:25;95263.19;;;37.56;53.23
20620;BME280;10469;42.720;23.252;2023-06-22T09:54:50;95244.81;;;37.55;55.87
20620;BME280;10469;42.720;23.252;2023-06-22T09:57:16;95252.38;;;38.82;45.88
20620;BME280;10469;42.720;23.252;2023-06-22T09:59:42;95247.97;;;37.93;52.89
20620;BME280;10469;42.720;23.252;2023-06-22T10:02:08;95249.09;;;39.46;44.98
20620;BME280;10469;42.720;23.252;2023-06-22T10:04:34;95247.81;;;39.09;42.58
20620;BME280;10469;42.720;23.252;2023-06-22T10:07:00;95248.41;;;36.99;57.37
20620;BME280;10469;42.720;23.252;2023-06-22T10:09:26;95250.09;;;34.20;77.34
20620;BME280;10469;42.720;23.252;2023-06-22T10:11:52;95232.47;;;34.84;76.65
20620;BME280;10469;42.720;23.252;2023-06-22T10:14:17;95246.66;;;34.01;81.85
20620;BME280;10469;42.720;23.252;2023-06-22T10:16:43;95227.25;;;33.78;79.63
20620;BME280;10469;42.720;23.252;2023-06-22T10:19:08;95237.97;;;33.49;77.30
20620;BME280;10469;42.720;23.252;2023-06-22T10:21:33;95234.53;;;33.89;77.93
20620;BME280;10469;42.720;23.252;2023-06-22T10:23:59;95238.91;;;33.87;74.12
20620;BME280;10469;42.720;23.252;2023-06-22T10:26:33;95237.50;;;34.00;78.20
20620;BME280;10469;42.720;23.252;2023-06-22T10:28:59;95230.25;;;34.59;69.53
20620;BME280;10469;42.720;23.252;2023-06-22T10:31:25;95237.00;;;36.20;64.60
20620;BME280;10469;42.720;23.252;2023-06-22T10:33:51;95218.47;;;36.99;53.93
20620;BME280;10469;42.720;23.252;2023-06-22T10:36:16;95222.06;;;37.10;54.52
20620;BME280;10469;42.720;23.252;2023-06-22T10:38:42;95226.31;;;34.64;68.38
20620;BME280;10469;42.720;23.252;2023-06-22T10:41:07;95235.94;;;33.73;78.50
20620;BME280;10469;42.720;23.252;2023-06-22T10:43:32;95224.78;;;34.33;74.72
20620;BME280;10469;42.720;23.252;2023-06-22T10:45:58;95200.34;;;33.85;73.48
20620;BME280;10469;42.720;23.252;2023-06-22T10:48:23;95214.59;;;35.40;66.10
20620;BME280;10469;42.720;23.252;2023-06-22T10:50:49;95205.44;;;36.09;62.83
20620;BME280;10469;42.720;23.252;2023-06-22T10:53:14;95196.25;;;36.05;57.73
20620;BME280;10469;42.720;23.252;2023-06-22T10:55:40;95214.06;;;36.95;53.91
20620;BME280;10469;42.720;23.252;2023-06-22T10:58:05;95208.47;;;35.72;59.14
20620;BME280;10469;42.720;23.252;2023-06-22T11:00:31;95209.97;;;34.59;70.07
20620;BME280;10469;42.720;23.252;2023-06-22T11:02:56;95199.16;;;33.86;72.84
20620;BME280;10469;42.720;23.252;2023-06-22T11:05:23;95209.47;;;36.15;64.84
20620;BME280;10469;42.720;23.252;2023-06-22T11:07:49;95202.97;;;35.27;68.22
20620;BME280;10469;42.720;23.252;2023-06-22T11:10:15;95208.81;;;32.90;76.81
20620;BME280;10469;42.720;23.252;2023-06-22T11:12:40;95199.78;;;34.77;71.55
20620;BME280;10469;42.720;23.252;2023-06-22T11:15:07;95199.84;;;34.10;73.76
20620;BME280;10469;42.720;23.252;2023-06-22T11:17:33;95198.31;;;34.12;80.33
20620;BME280;10469;42.720;23.252;2023-06-22T11:19:59;95187.06;;;34.80;71.63
20620;BME280;10469;42.720;23.252;2023-06-22T11:22:25;95196.94;;;34.33;75.76
20620;BME280;10469;42.720;23.252;2023-06-22T11:24:51;95190.78;;;34.50;67.77
20620;BME280;10469;42.720;23.252;2023-06-22T11:27:16;95195.72;;;33.97;77.59
20620;BME280;10469;42.720;23.252;2023-06-22T11:29:42;95192.56;;;33.41;78.34
20620;BME280;10469;42.720;23.252;2023-06-22T11:32:07;95191.50;;;32.08;87.41
20620;BME280;10469;42.720;23.252;2023-06-22T11:34:33;95195.69;;;30.77;91.09
20620;BME280;10469;42.720;23.252;2023-06-22T11:36:58;95187.78;;;30.32;99.86
20620;BME280;10469;42.720;23.252;2023-06-22T11:39:24;95196.31;;;30.27;96.54
20620;BME280;10469;42.720;23.252;2023-06-22T11:41:49;95204.78;;;29.49;100.00
20620;BME280;10469;42.720;23.252;2023-06-22T11:44:15;95198.19;;;28.89;100.00
20620;BME280;10469;42.720;23.252;2023-06-22T11:46:40;95199.78;;;28.66;100.00
20620;BME280;10469;42.720;23.252;2023-06-22T11:49:06;95192.97;;;28.51;100.00
20620;BME280;10469;42.720;23.252;2023-06-22T11:51:32;95177.38;;;28.67;100.00
20620;BME280;10469;42.720;23.252;2023-06-22T11:53:57;95192.06;;;29.33;100.00
20620;BME280;10469;42.720;23.252;2023-06-22T11:56:24;95201.28;;;29.00;100.00
20620;BME280;10469;42.720;23.252;2023-06-22T11:58:49;95206.09;;;28.66;100.00
20620;BME280;10469;42.720;23.252;2023-06-22T12:01:14;95193.81;;;28.76;100.00
20620;BME280;10469;42.720;23.252;2023-06-22T12:03:41;95191.63;;;28.82;100.00
20620;BME280;10469;42.720;23.252;2023-06-22T12:06:08;95197.16;;;29.06;100.00
20620;BME280;10469;42.720;23.252;2023-06-22T12:08:34;95201.25;;;28.88;100.00
20620;BME280;10469;42.720;23.252;2023-06-22T12:10:59;95204.72;;;29.21;100.00
20620;BME280;10469;42.720;23.252;2023-06-22T12:13:25;95226.22;;;28.79;100.00
20620;BME280;10469;42.720;23.252;2023-06-22T12:15:50;95230.06;;;27.33;100.00
20620;BME280;10469;42.720;23.252;2023-06-22T12:18:17;95251.19;;;26.82;100.00
20620;BME280;10469;42.720;23.252;2023-06-22T12:20:45;95252.38;;;25.73;100.00
20620;BME280;10469;42.720;23.252;2023-06-22T12:23:11;95241.78;;;25.06;100.00
20620;BME280;10469;42.720;23.252;2023-06-22T12:25:37;95261.81;;;24.13;100.00
20620;BME280;10469;42.720;23.252;2023-06-22T12:28:02;95232.38;;;23.15;100.00
20620;BME280;10469;42.720;23.252;2023-06-22T12:30:30;95217.81;;;22.23;100.00
20620;BME280;10469;42.720;23.252;2023-06-22T12:32:55;95198.91;;;21.81;100.00
20620;BME280;10469;42.720;23.252;2023-06-22T12:35:21;95220.34;;;21.87;100.00
20620;BME280;10469;42.720;23.252;2023-06-22T12:37:46;95228.94;;;22.13;100.00
20620;BME280;10469;42.720;23.252;2023-06-22T12:40:12;95217.03;;;22.64;100.00
20620;BME280;10469;42.720;23.252;2023-06-22T12:42:38;95210.81;;;22.86;100.00
20620;BME280;10469;42.720;23.252;2023-06-22T12:45:04;95209.22;;;22.99;100.00
20620;BME280;10469;42.720;23.252;2023-06-22T12:47:29;95223.75;;;23.58;100.00
20620;BME280;10469;42.720;23.252;2023-06-22T12:49:55;95218.41;;;23.98;100.00
20620;BME280;10469;42.720;23.252;2023-06-22T12:52:20;95214.84;;;24.60;100.00
20620;BME280;10469;42.720;23.252;2023-06-22T12:54:46;95234.78;;;24.43;100.00
20620;BME280;10469;42.720;23.252;2023-06-22T12:57:13;95226.59;;;25.00;100.00
20620;BME280;10469;42.720;23.252;2023-06-22T12:59:38;95225.22;;;25.28;100.00
20620;BME280;10469;42.720;23.252;2023-06-22T13:02:04;95218.09;;;25.10;100.00
20620;BME280;10469;42.720;23.252;2023-06-22T13:04:29;95236.88;;;25.77;100.00
20620;BME280;10469;42.720;23.252;2023-06-22T13:06:55;95216.69;;;25.82;100.00
20620;BME280;10469;42.720;23.252;2023-06-22T13:09:20;95232.81;;;25.58;100.00
20620;BME280;10469;42.720;23.252;2023-06-22T13:11:46;95242.84;;;25.97;100.00
20620;BME280;10469;42.720;23.252;2023-06-22T13:14:11;95220.88;;;25.36;100.00
20620;BME280;10469;42.720;23.252;2023-06-22T13:16:37;95252.94;;;24.61;100.00
20620;BME280;10469;42.720;23.252;2023-06-22T13:19:02;95246.59;;;24.52;100.00